createdAt,value
2018-06-04T00:02:26.536Z,19.37
2018-06-04T00:04:54.908Z,20.03
2018-06-04T00:07:23.375Z,19.70
2018-06-04T00:09:51.788Z,19.20
2018-06-04T00:12:20.146Z,19.33
2018-06-04T00:14:48.492Z,16.07
2018-06-04T00:17:16.908Z,15.93
2018-06-04T00:19:45.374Z,16.67
2018-06-04T00:22:13.699Z,14.33
2018-06-04T00:24:42.009Z,15.20
2018-06-04T00:27:10.312Z,17.53
2018-06-04T00:29:38.656Z,19.10
2018-06-04T00:32:07.087Z,20.67
2018-06-04T00:34:35.441Z,19.23
2018-06-04T00:37:03.785Z,19.30
2018-06-04T00:39:32.100Z,21.53
2018-06-04T00:42:00.412Z,17.80
2018-06-04T00:44:28.775Z,22.53
2018-06-04T00:46:57.264Z,17.00
2018-06-04T00:49:25.621Z,16.23
2018-06-04T00:51:53.903Z,16.43
2018-06-04T00:54:22.313Z,19.80
2018-06-04T00:56:50.715Z,15.37
2018-06-04T00:59:19.159Z,18.93
2018-06-04T01:01:47.492Z,17.17
2018-06-04T01:04:15.848Z,16.47
2018-06-04T01:06:44.203Z,18.00
2018-06-04T01:09:12.555Z,21.73
2018-06-04T01:11:40.960Z,18.23
2018-06-04T01:14:09.305Z,21.43
2018-06-04T01:16:37.658Z,19.40
2018-06-04T01:19:05.991Z,15.07
2018-06-04T01:21:34.349Z,21.30
2018-06-04T01:24:02.692Z,21.33
2018-06-04T01:26:31.157Z,19.23
2018-06-04T01:28:59.556Z,16.63
2018-06-04T01:31:27.867Z,18.43
2018-06-04T01:33:56.245Z,19.73
2018-06-04T01:36:24.621Z,19.80
2018-06-04T01:38:53.072Z,21.23
2018-06-04T01:41:21.396Z,24.33
2018-06-04T01:43:49.740Z,17.50
2018-06-04T01:46:18.113Z,22.37
2018-06-04T01:48:46.460Z,18.77
2018-06-04T01:51:14.915Z,19.40
2018-06-04T01:53:43.292Z,18.33
2018-06-04T01:56:11.648Z,20.10
2018-06-04T01:58:40.005Z,21.57
2018-06-04T02:01:08.340Z,22.50
2018-06-04T02:03:36.698Z,17.10
2018-06-04T02:06:05.129Z,18.63
2018-06-04T02:08:33.531Z,18.00
2018-06-04T02:11:01.916Z,16.60
2018-06-04T02:13:30.269Z,15.77
2018-06-04T02:15:58.584Z,18.00
2018-06-04T02:18:26.953Z,18.00
2018-06-04T02:20:55.311Z,15.57
2018-06-04T02:23:23.705Z,21.23
2018-06-04T02:25:52.032Z,15.73
2018-06-04T02:28:20.360Z,18.77
2018-06-04T02:30:48.800Z,20.03
2018-06-04T02:33:17.203Z,18.87
2018-06-04T02:35:45.588Z,18.53
2018-06-04T02:38:13.935Z,21.40
2018-06-04T02:40:42.292Z,18.67
2018-06-04T02:43:10.630Z,15.33
2018-06-04T02:45:39.097Z,21.17
2018-06-04T02:48:07.982Z,20.13
2018-06-04T02:50:36.486Z,15.17
2018-06-04T02:53:04.837Z,16.03
2018-06-04T02:55:33.268Z,17.97
2018-06-04T02:58:01.624Z,17.00
2018-06-04T03:00:30.244Z,15.33
2018-06-04T03:02:58.661Z,16.67
2018-06-04T03:05:28.692Z,21.20
2018-06-04T03:07:57.191Z,16.70
2018-06-04T03:10:25.595Z,20.27
2018-06-04T03:12:56.696Z,16.97
2018-06-04T03:15:25.042Z,16.47
2018-06-04T03:17:53.453Z,17.63
2018-06-04T03:20:21.794Z,19.97
2018-06-04T03:22:50.223Z,21.50
2018-06-04T03:25:18.661Z,18.13
2018-06-04T03:27:47.119Z,17.70
2018-06-04T03:30:15.580Z,18.70
2018-06-04T03:32:43.983Z,18.77
2018-06-04T03:35:12.291Z,15.80
2018-06-04T03:37:40.665Z,18.07
2018-06-04T03:40:09.047Z,18.77
2018-06-04T03:42:37.475Z,15.20
2018-06-04T03:45:05.881Z,19.90
2018-06-04T03:47:34.199Z,17.03
2018-06-04T03:50:02.567Z,17.77
2018-06-04T03:52:30.963Z,19.63
2018-06-04T03:54:59.406Z,16.30
2018-06-04T03:57:27.800Z,18.33
2018-06-04T03:59:56.139Z,20.73
2018-06-04T04:02:24.543Z,17.57
2018-06-04T04:04:52.916Z,15.53
2018-06-04T04:07:21.301Z,17.03
2018-06-04T04:09:49.588Z,16.30
2018-06-04T04:12:17.948Z,17.80
2018-06-04T04:14:46.288Z,15.70
2018-06-04T04:17:15.438Z,15.73
2018-06-04T04:19:43.973Z,16.30
2018-06-04T04:22:12.435Z,20.07
2018-06-04T04:24:40.913Z,18.83
2018-06-04T04:27:09.297Z,19.20
2018-06-04T04:29:37.760Z,17.90
2018-06-04T04:32:06.076Z,20.27
2018-06-04T04:34:35.213Z,18.17
2018-06-04T04:37:03.577Z,22.33
2018-06-04T04:39:32.004Z,17.33
2018-06-04T04:42:00.630Z,16.33
2018-06-04T04:44:29.038Z,20.07
2018-06-04T04:46:57.791Z,21.40
2018-06-04T04:49:26.159Z,21.73
2018-06-04T04:51:55.473Z,15.40
2018-06-04T04:54:23.807Z,16.63
2018-06-04T04:56:52.220Z,17.57
2018-06-04T04:59:20.591Z,17.27
2018-06-04T05:01:49.116Z,20.43
2018-06-04T05:04:17.467Z,19.03
2018-06-04T05:06:45.858Z,19.50
2018-06-04T05:09:14.247Z,18.53
2018-06-04T05:11:42.698Z,20.17
2018-06-04T05:14:11.029Z,18.53
2018-06-04T05:16:39.411Z,20.23
2018-06-04T05:19:07.730Z,17.63
2018-06-04T05:21:36.539Z,22.20
2018-06-04T05:24:05.144Z,21.30
2018-06-04T05:26:33.517Z,27.20
2018-06-04T05:29:01.959Z,23.10
2018-06-04T05:31:30.333Z,23.30
2018-06-04T05:33:58.640Z,22.13
2018-06-04T05:36:28.620Z,17.30
2018-06-04T05:38:56.929Z,21.67
2018-06-04T05:41:25.317Z,21.53
2018-06-04T05:43:53.677Z,19.70
2018-06-04T05:46:22.077Z,21.67
2018-06-04T05:48:50.444Z,19.53
2018-06-04T05:51:20.064Z,25.47
2018-06-04T05:53:48.414Z,22.07
2018-06-04T05:56:17.341Z,22.50
2018-06-04T05:58:45.636Z,24.67
2018-06-04T06:01:14.730Z,23.70
2018-06-04T06:03:43.069Z,20.77
2018-06-04T06:06:11.389Z,19.60
2018-06-04T06:08:39.747Z,18.93
2018-06-04T06:11:08.071Z,18.63
2018-06-04T06:13:36.430Z,17.70
2018-06-04T06:16:04.832Z,19.53
2018-06-04T06:18:33.163Z,17.40
2018-06-04T06:21:01.539Z,23.90
2018-06-04T06:23:30.047Z,21.20
2018-06-04T06:25:58.383Z,18.77
2018-06-04T06:28:26.868Z,19.80
2018-06-04T06:30:55.283Z,21.70
2018-06-04T06:33:23.563Z,24.63
2018-06-04T06:35:51.929Z,24.27
2018-06-04T06:38:20.259Z,22.40
2018-06-04T06:40:48.638Z,20.27
2018-06-04T06:43:17.032Z,19.57
2018-06-04T06:45:45.351Z,24.60
2018-06-04T06:48:13.661Z,25.97
2018-06-04T06:50:42.024Z,21.17
2018-06-04T06:53:10.358Z,21.27
2018-06-04T06:55:38.757Z,22.40
2018-06-04T06:58:07.103Z,21.63
2018-06-04T07:00:35.462Z,23.03
2018-06-04T07:03:03.820Z,21.57
2018-06-04T07:05:32.163Z,21.00
2018-06-04T07:08:00.539Z,19.63
2018-06-04T07:10:28.831Z,22.83
2018-06-04T07:12:58.895Z,18.20
2018-06-04T07:15:27.210Z,19.43
2018-06-04T07:17:55.548Z,24.27
2018-06-04T07:20:23.924Z,18.27
2018-06-04T07:22:52.322Z,19.83
2018-06-04T07:25:20.693Z,21.70
2018-06-04T07:27:49.136Z,21.70
2018-06-04T07:30:17.542Z,21.73
2018-06-04T07:32:45.956Z,16.87
2018-06-04T07:35:14.402Z,23.30
2018-06-04T07:37:42.728Z,18.60
2018-06-04T07:40:11.050Z,19.40
2018-06-04T07:42:39.405Z,21.17
2018-06-04T07:45:07.766Z,18.30
2018-06-04T07:47:36.124Z,19.23
2018-06-04T07:50:04.476Z,20.27
2018-06-04T07:52:32.815Z,18.67
2018-06-04T07:55:01.188Z,21.53
2018-06-04T07:57:29.520Z,23.60
2018-06-04T07:59:57.847Z,23.10
2018-06-04T08:02:26.208Z,43.33
2018-06-04T08:04:54.532Z,29.67
2018-06-04T08:07:22.884Z,19.83
2018-06-04T08:09:51.393Z,20.70
2018-06-04T08:12:19.777Z,16.33
2018-06-04T08:14:48.160Z,12.83
2018-06-04T08:17:16.477Z,14.63
2018-06-04T08:19:44.797Z,17.87
2018-06-04T08:22:13.239Z,13.77
2018-06-04T08:24:41.558Z,17.40
2018-06-04T08:27:09.871Z,12.23
2018-06-04T08:29:38.254Z,10.97
2018-06-04T08:32:06.696Z,11.93
2018-06-04T08:34:34.979Z,9.37
2018-06-04T08:37:03.384Z,10.20
2018-06-04T08:39:31.719Z,86.50
2018-06-04T08:42:00.056Z,12.30
2018-06-04T08:44:28.374Z,8.50
2018-06-04T08:46:56.787Z,9.13
2018-06-04T08:49:25.192Z,13.33
2018-06-04T08:51:54.807Z,11.80
2018-06-04T08:54:23.215Z,12.07
2018-06-04T08:56:51.537Z,9.57
2018-06-04T08:59:19.897Z,8.93
2018-06-04T09:01:48.218Z,9.47
2018-06-04T09:04:16.587Z,8.00
2018-06-04T09:06:44.952Z,9.50
2018-06-04T09:09:13.330Z,7.50
2018-06-04T09:11:41.695Z,9.47
2018-06-04T09:14:10.077Z,8.23
2018-06-04T09:16:38.429Z,9.30
2018-06-04T09:19:06.744Z,9.00
2018-06-04T09:21:35.186Z,8.03
2018-06-04T09:24:03.620Z,7.80
2018-06-04T09:26:31.955Z,8.27
2018-06-04T09:29:00.288Z,7.97
2018-06-04T09:31:28.644Z,8.77
2018-06-04T09:33:57.028Z,9.17
2018-06-04T09:36:25.447Z,9.10
2018-06-04T09:38:53.757Z,9.83
2018-06-04T09:41:22.089Z,8.40
2018-06-04T09:43:50.479Z,6.80
2018-06-04T09:46:18.819Z,7.57
2018-06-04T09:48:47.184Z,8.13
2018-06-04T09:51:15.547Z,6.77
2018-06-04T09:53:43.878Z,5.63
2018-06-04T09:56:12.180Z,8.57
2018-06-04T09:58:40.560Z,8.53
2018-06-04T10:01:08.918Z,7.13
2018-06-04T10:03:37.284Z,8.50
2018-06-04T10:06:05.657Z,7.70
2018-06-04T10:08:33.987Z,6.57
2018-06-04T10:11:02.297Z,7.20
2018-06-04T10:13:30.643Z,7.97
2018-06-04T10:15:58.998Z,7.30
2018-06-04T10:18:27.344Z,5.83
2018-06-04T10:20:55.659Z,6.50
2018-06-04T10:23:23.947Z,8.90
2018-06-04T10:25:52.298Z,6.30
2018-06-04T10:28:20.643Z,5.80
2018-06-04T10:30:49.039Z,7.30
2018-06-04T10:33:17.439Z,10.83
2018-06-04T10:35:45.817Z,6.00
2018-06-04T10:38:14.206Z,6.57
2018-06-04T10:40:42.572Z,6.77
2018-06-04T10:43:10.892Z,6.63
2018-06-04T10:45:39.275Z,6.90
2018-06-04T10:48:08.356Z,7.43
2018-06-04T10:50:36.724Z,6.33
2018-06-04T10:53:05.055Z,5.97
2018-06-04T10:55:33.988Z,6.93
2018-06-04T10:58:02.355Z,6.10
2018-06-04T11:00:30.719Z,6.30
2018-06-04T11:02:59.058Z,6.77
2018-06-04T11:05:27.392Z,5.87
2018-06-04T11:07:55.728Z,6.37
2018-06-04T11:10:24.141Z,5.30
2018-06-04T11:12:52.447Z,4.87
2018-06-04T11:15:20.868Z,4.67
2018-06-04T11:17:49.192Z,5.60
2018-06-04T11:20:17.520Z,5.30
2018-06-04T11:22:45.949Z,5.87
2018-06-04T11:25:14.431Z,6.37
2018-06-04T11:27:42.807Z,6.17
2018-06-04T11:30:11.136Z,4.90
2018-06-04T11:32:39.470Z,6.17
2018-06-04T11:35:07.807Z,7.03
2018-06-04T11:37:36.180Z,6.80
2018-06-04T11:40:04.589Z,5.30
2018-06-04T11:42:33.081Z,5.33
2018-06-04T11:45:01.475Z,6.50
2018-06-04T11:47:29.799Z,5.23
2018-06-04T11:49:58.452Z,4.87
2018-06-04T11:52:26.745Z,5.27
2018-06-04T11:54:55.103Z,6.20
2018-06-04T11:57:23.527Z,5.20
2018-06-04T11:59:52.001Z,5.73
2018-06-04T12:02:20.311Z,5.43
2018-06-04T12:04:48.660Z,6.00
2018-06-04T12:07:17.154Z,5.67
2018-06-04T12:09:45.488Z,5.67
2018-06-04T12:12:14.151Z,5.23
2018-06-04T12:14:42.493Z,6.23
2018-06-04T12:17:12.413Z,6.27
2018-06-04T12:19:41.179Z,5.53
2018-06-04T12:22:11.742Z,6.23
2018-06-04T12:24:40.174Z,4.83
2018-06-04T12:27:08.658Z,4.63
2018-06-04T12:29:37.655Z,4.80
2018-06-04T12:32:06.059Z,7.20
2018-06-04T12:34:34.430Z,5.77
2018-06-04T12:37:03.031Z,9.63
2018-06-04T12:39:31.359Z,5.60
2018-06-04T12:41:59.681Z,4.93
2018-06-04T12:44:28.062Z,5.93
2018-06-04T12:46:56.398Z,5.00
2018-06-04T12:49:24.839Z,5.47
2018-06-04T12:51:53.150Z,5.10
2018-06-04T12:54:21.462Z,4.73
2018-06-04T12:56:49.828Z,5.97
2018-06-04T12:59:18.143Z,8.00
2018-06-04T13:01:46.479Z,5.43
2018-06-04T13:04:14.774Z,6.60
2018-06-04T13:06:43.143Z,5.10
2018-06-04T13:09:11.446Z,4.67
2018-06-04T13:11:39.792Z,4.60
2018-06-04T13:14:08.143Z,6.87
2018-06-04T13:16:36.487Z,5.33
2018-06-04T13:19:05.015Z,6.77
2018-06-04T13:21:33.353Z,6.67
2018-06-04T13:24:01.701Z,5.97
2018-06-04T13:26:30.262Z,6.27
2018-06-04T13:28:58.689Z,6.87
2018-06-04T13:31:27.050Z,11.23
2018-06-04T13:33:55.452Z,7.80
2018-06-04T13:36:23.788Z,7.07
2018-06-04T13:38:52.183Z,6.40
2018-06-04T13:41:20.611Z,9.27
2018-06-04T13:43:48.926Z,6.90
2018-06-04T13:46:17.231Z,6.23
2018-06-04T13:48:45.547Z,5.50
2018-06-04T13:51:13.947Z,5.87
2018-06-04T13:53:42.322Z,5.20
2018-06-04T13:56:10.699Z,6.40
2018-06-04T13:58:38.998Z,5.33
2018-06-04T14:01:07.350Z,6.10
2018-06-04T14:03:35.720Z,6.03
2018-06-04T14:06:04.102Z,7.97
2018-06-04T14:08:32.563Z,12.67
2018-06-04T14:11:00.850Z,6.90
2018-06-04T14:13:29.167Z,6.90
2018-06-04T14:15:57.471Z,5.87
2018-06-04T14:18:25.894Z,6.00
2018-06-04T14:20:54.223Z,6.63
2018-06-04T14:23:22.614Z,8.10
2018-06-04T14:25:50.919Z,7.00
2018-06-04T14:28:19.227Z,5.90
2018-06-04T14:30:47.685Z,6.57
2018-06-04T14:33:16.029Z,6.30
2018-06-04T14:35:44.323Z,6.37
2018-06-04T14:38:12.670Z,6.80
2018-06-04T14:40:40.963Z,5.93
2018-06-04T14:43:09.290Z,10.63
2018-06-04T14:45:37.678Z,10.37
2018-06-04T14:48:06.067Z,9.53
2018-06-04T14:50:34.462Z,6.97
2018-06-04T14:53:03.839Z,8.13
2018-06-04T14:55:32.158Z,6.77
2018-06-04T14:58:00.470Z,6.20
2018-06-04T15:00:28.797Z,7.07
2018-06-04T15:02:57.229Z,8.00
2018-06-04T15:05:25.548Z,7.77
2018-06-04T15:07:53.954Z,7.50
2018-06-04T15:10:22.247Z,7.77
2018-06-04T15:12:50.591Z,7.90
2018-06-04T15:15:19.083Z,7.07
2018-06-04T15:17:47.439Z,9.17
2018-06-04T15:20:16.688Z,9.07
2018-06-04T15:22:45.095Z,8.63
2018-06-04T15:25:13.422Z,8.67
2018-06-04T15:27:41.889Z,8.23
2018-06-04T15:30:10.232Z,10.07
2018-06-04T15:32:38.768Z,9.60
2018-06-04T15:35:07.318Z,8.07
2018-06-04T15:37:35.868Z,10.20
2018-06-04T15:40:04.420Z,9.90
2018-06-04T15:42:32.783Z,10.03
2018-06-04T15:45:01.111Z,10.67
2018-06-04T15:47:29.503Z,8.67
2018-06-04T15:49:57.856Z,7.33
2018-06-04T15:52:26.249Z,9.47
2018-06-04T15:54:54.612Z,8.07
2018-06-04T15:57:24.220Z,8.83
2018-06-04T15:59:52.570Z,9.07
2018-06-04T16:02:20.914Z,8.90
2018-06-04T16:04:49.338Z,9.07
2018-06-04T16:07:17.671Z,9.93
2018-06-04T16:09:46.017Z,8.20
2018-06-04T16:12:14.344Z,8.17
2018-06-04T16:14:43.400Z,7.70
2018-06-04T16:17:11.877Z,8.10
2018-06-04T16:19:40.401Z,7.63
2018-06-04T16:22:09.359Z,7.00
2018-06-04T16:24:37.687Z,7.63
2018-06-04T16:27:06.067Z,10.43
2018-06-04T16:29:34.425Z,7.20
2018-06-04T16:32:02.763Z,8.43
2018-06-04T16:34:31.096Z,8.43
2018-06-04T16:36:59.470Z,9.40
2018-06-04T16:39:27.958Z,9.30
2018-06-04T16:41:56.299Z,9.33
2018-06-04T16:44:24.647Z,8.80
2018-06-04T16:46:52.954Z,7.37
2018-06-04T16:49:21.348Z,10.33
2018-06-04T16:51:49.696Z,8.73
2018-06-04T16:54:18.055Z,8.20
2018-06-04T16:56:46.410Z,8.27
2018-06-04T16:59:14.811Z,9.60
2018-06-04T17:01:43.122Z,9.20
2018-06-04T17:04:11.446Z,8.67
2018-06-04T17:06:39.751Z,12.63
2018-06-04T17:09:08.489Z,10.67
2018-06-04T17:11:36.923Z,13.03
2018-06-04T17:14:05.251Z,10.03
2018-06-04T17:16:34.003Z,10.20
2018-06-04T17:19:02.451Z,8.77
2018-06-04T17:21:30.784Z,11.13
2018-06-04T17:23:59.174Z,9.83
2018-06-04T17:26:27.577Z,11.57
2018-06-04T17:28:55.876Z,9.87
2018-06-04T17:31:24.279Z,12.03
2018-06-04T17:33:53.433Z,12.20
2018-06-04T17:36:21.813Z,12.17
2018-06-04T17:38:50.093Z,11.20
2018-06-04T17:41:18.378Z,11.37
2018-06-04T17:43:46.672Z,10.23
2018-06-04T17:46:15.019Z,10.10
2018-06-04T17:48:43.322Z,11.07
2018-06-04T17:51:12.792Z,11.67
2018-06-04T17:53:41.187Z,10.03
2018-06-04T17:56:09.564Z,11.83
2018-06-04T17:58:37.871Z,15.43
2018-06-04T18:01:06.265Z,11.43
2018-06-04T18:03:34.708Z,11.53
2018-06-04T18:06:03.093Z,11.30
2018-06-04T18:08:31.398Z,13.47
2018-06-04T18:10:59.747Z,10.30
2018-06-04T18:13:29.076Z,12.87
2018-06-04T18:15:57.464Z,9.93
2018-06-04T18:18:25.850Z,10.73
2018-06-04T18:20:54.298Z,10.03
2018-06-04T18:23:22.767Z,10.40
2018-06-04T18:25:51.152Z,10.87
2018-06-04T18:28:19.455Z,11.43
2018-06-04T18:30:47.787Z,11.63
2018-06-04T18:33:16.150Z,10.30
2018-06-04T18:35:44.447Z,11.37
2018-06-04T18:38:12.801Z,12.57
2018-06-04T18:40:41.126Z,12.30
2018-06-04T18:43:09.515Z,13.50
2018-06-04T18:45:37.915Z,12.77
2018-06-04T18:48:06.367Z,11.97
2018-06-04T18:50:34.731Z,14.63
2018-06-04T18:53:03.048Z,11.20
2018-06-04T18:55:31.460Z,11.97
2018-06-04T18:57:59.803Z,10.33
2018-06-04T19:00:28.381Z,11.03
2018-06-04T19:02:56.720Z,11.47
2018-06-04T19:05:25.051Z,14.70
2018-06-04T19:07:53.436Z,11.97
2018-06-04T19:10:21.742Z,11.73
2018-06-04T19:12:50.209Z,9.37
2018-06-04T19:15:18.606Z,11.47
2018-06-04T19:17:47.176Z,12.60
2018-06-04T19:20:15.529Z,11.43
2018-06-04T19:22:43.958Z,14.53
2018-06-04T19:25:12.317Z,12.63
2018-06-04T19:27:41.517Z,15.80
2018-06-04T19:30:09.852Z,11.87
2018-06-04T19:32:38.225Z,12.07
2018-06-04T19:35:06.686Z,12.47
2018-06-04T19:37:35.047Z,11.43
2018-06-04T19:40:03.525Z,12.37
2018-06-04T19:42:31.917Z,12.90
2018-06-04T19:45:00.340Z,11.23
2018-06-04T19:47:28.761Z,12.00
2018-06-04T19:49:57.047Z,10.80
2018-06-04T19:52:25.443Z,11.57
2018-06-04T19:54:53.816Z,9.73
2018-06-04T19:57:22.257Z,15.03
2018-06-04T19:59:50.821Z,11.20
2018-06-04T20:02:19.147Z,12.47
2018-06-04T20:04:47.527Z,14.13
2018-06-04T20:07:15.879Z,12.63
2018-06-04T20:09:44.259Z,14.47
2018-06-04T20:12:12.582Z,12.03
2018-06-04T20:14:41.107Z,11.03
2018-06-04T20:17:09.479Z,12.87
2018-06-04T20:19:37.889Z,13.37
2018-06-04T20:23:09.760Z,10.30
2018-06-04T20:25:38.204Z,12.07
2018-06-04T20:28:06.612Z,11.93
2018-06-04T20:30:34.949Z,15.27
2018-06-04T20:33:03.309Z,10.73
2018-06-04T20:35:31.682Z,19.20
2018-06-04T20:38:00.043Z,13.57
2018-06-04T20:40:28.406Z,13.53
2018-06-04T20:42:56.710Z,12.33
2018-06-04T20:45:25.039Z,14.43
2018-06-04T20:47:53.444Z,14.10
2018-06-04T20:50:21.930Z,13.37
2018-06-04T20:52:50.300Z,11.27
2018-06-04T20:55:18.667Z,11.90
2018-06-04T20:57:46.976Z,12.43
2018-06-04T21:00:15.375Z,15.30
2018-06-04T21:02:43.707Z,10.63
2018-06-04T21:05:12.092Z,11.63
2018-06-04T21:07:40.518Z,18.40
2018-06-04T21:10:09.055Z,15.40
2018-06-04T21:12:37.418Z,13.57
2018-06-04T21:15:05.931Z,14.67
2018-06-04T21:17:34.415Z,13.40
2018-06-04T21:20:02.721Z,13.50
2018-06-04T21:22:31.075Z,13.17
2018-06-04T21:24:59.398Z,14.40
2018-06-04T21:27:27.734Z,13.57
2018-06-04T21:29:56.091Z,11.43
2018-06-04T21:32:24.468Z,12.53
2018-06-04T21:34:52.759Z,11.17
2018-06-04T21:37:21.088Z,15.03
2018-06-04T21:39:49.402Z,17.33
2018-06-04T21:42:17.810Z,14.97
2018-06-04T21:44:46.208Z,12.77
2018-06-04T21:47:14.651Z,13.13
2018-06-04T21:49:43.050Z,13.67
2018-06-04T21:52:11.370Z,16.10
2018-06-04T21:54:39.671Z,15.80
2018-06-04T21:57:08.102Z,14.27
2018-06-04T21:59:36.503Z,15.10
2018-06-04T22:02:04.933Z,12.63
2018-06-04T22:04:33.282Z,14.43
2018-06-04T22:07:01.582Z,12.53
2018-06-04T22:09:29.912Z,13.97
2018-06-04T22:11:58.307Z,12.87
2018-06-04T22:14:26.848Z,14.90
2018-06-04T22:16:55.299Z,12.77
2018-06-04T22:19:23.586Z,13.30
2018-06-04T22:21:51.952Z,11.97
2018-06-04T22:24:20.325Z,11.57
2018-06-04T22:26:48.777Z,17.20
2018-06-04T22:29:17.202Z,12.63
2018-06-04T22:31:45.547Z,12.57
2018-06-04T22:34:13.864Z,12.93
2018-06-04T22:36:42.227Z,14.00
2018-06-04T22:39:10.672Z,13.63
2018-06-04T22:41:39.071Z,15.93
2018-06-04T22:44:07.457Z,16.13
2018-06-04T22:46:35.798Z,13.37
2018-06-04T22:49:07.568Z,18.10
2018-06-04T22:51:36.395Z,14.60
2018-06-04T22:54:04.772Z,16.87
2018-06-04T22:56:33.091Z,16.67
2018-06-04T22:59:01.454Z,15.73
2018-06-04T23:01:29.793Z,14.70
2018-06-04T23:03:58.123Z,16.37
2018-06-04T23:06:26.467Z,14.60
2018-06-04T23:08:54.788Z,18.47
2018-06-04T23:11:23.119Z,16.67
2018-06-04T23:13:51.434Z,17.57
2018-06-04T23:16:19.812Z,17.93
2018-06-04T23:18:48.232Z,16.37
2018-06-04T23:21:16.618Z,17.07
2018-06-04T23:23:44.960Z,19.13
2018-06-04T23:26:13.287Z,16.67
2018-06-04T23:28:41.666Z,14.67
2018-06-04T23:31:09.996Z,15.80
2018-06-04T23:33:38.367Z,18.57
2018-06-04T23:36:06.779Z,16.23
2018-06-04T23:38:35.159Z,15.10
2018-06-04T23:41:03.580Z,17.13
2018-06-04T23:43:31.958Z,18.07
2018-06-04T23:46:00.387Z,16.53
2018-06-04T23:48:28.797Z,16.23
2018-06-04T23:50:57.134Z,23.37
2018-06-04T23:53:25.457Z,17.73
2018-06-04T23:55:53.819Z,17.37
2018-06-04T23:58:22.253Z,18.27
